Time;durP1;ratioP1;P1;durP2;ratioP2;P2;SDS_P1;SDS_P2;PMS_P1;PMS_P2;Temp;Humidity;BMP_temperature;BMP_pressure;BME280_temperature;BME280_humidity;BME280_pressure;Samples;Min_cycle;Max_cycle;Signal;HPM_P1;HPM_P2
2022/12/29 00:02:13;;;;;;;;;;;;;;;;;;4452828;32;19940;-74
2022/12/29 00:04:38;;;;;;;;;;;;;;;;;;4452268;32;19941;-74
2022/12/29 00:07:04;;;;;;;;;;;;;;;;;;4452510;32;19944;-74
2022/12/29 00:09:29;;;;;;;;;;;;;;;;;;4452351;32;19936;-74
2022/12/29 00:11:54;;;;;;;;;;;;;;;;;;4438615;32;19960;-74
2022/12/29 00:17:03;;;;;;;;;;;;;;;;;;4454228;32;19928;-74
2022/12/29 00:35:52;;;;;;;;;;;;;;;;;;4453371;32;19950;-74
2022/12/29 00:46:29;;;;;;;;;;;;;;;;;;4452788;32;19969;-73
2022/12/29 00:51:38;;;;;;;;;;;;;;;;;;4452574;32;19968;-74
2022/12/29 00:54:03;;;;;;;;;;;;;;;;;;4451768;32;19936;-76
2022/12/29 00:56:28;;;;;;;;;;;;;;;;;;4451699;32;19963;-75
2022/12/29 00:58:53;;;;;;;;;;;;;;;;;;4452679;32;20294;-76
2022/12/29 01:01:18;;;;;;;;;;;;;;;;;;4452684;32;19962;-77
2022/12/29 01:03:44;;;;;;;;;;;;;;;;;;4438106;32;20247;-78
2022/12/29 01:06:09;;;;;;;;;;;;;;;;;;4452597;32;19932;-77
2022/12/29 01:08:34;;;;;;;;;;;;;;;;;;4452485;32;19951;-76
2022/12/29 01:11:00;;;;;;;;;;;;;;;;;;4452224;32;19988;-76
2022/12/29 01:13:25;;;;;;;;;;;;;;;;;;4452357;32;19955;-77
2022/12/29 01:15:50;;;;;;;;;;;;;;;;;;4451953;32;19969;-76
2022/12/29 01:18:15;;;;;;;;;;;;;;;;;;4451758;32;19959;-75
2022/12/29 01:20:40;;;;;;;;;;;;;;;;;;4453269;32;19947;-76
2022/12/29 01:23:05;;;;;;;;;;;;;;;;;;4453112;32;19936;-77
2022/12/29 01:25:30;;;;;;;;;;;;;;;;;;4451831;32;20017;-76
2022/12/29 01:27:56;;;;;;;;;;;;;;;;;;4451567;32;20332;-77
2022/12/29 01:30:21;;;;;;;;;;;;;;;;;;4452013;32;19948;-75
2022/12/29 01:32:46;;;;;;;;;;;;;;;;;;4451383;32;19974;-77
2022/12/29 01:35:11;;;;;;;;;;;;;;;;;;4451875;32;19936;-77
2022/12/29 01:37:36;;;;;;;;;;;;;;;;;;4451608;32;19933;-78
2022/12/29 01:40:01;;;;;;;;;;;;;;;;;;4452133;32;20032;-77
2022/12/29 01:42:26;;;;;;;;;;;;;;;;;;4451890;32;20305;-74
2022/12/29 01:44:51;;;;;;;;;;;;;;;;;;4451578;32;19955;-75
2022/12/29 01:47:16;;;;;;;;;;;;;;;;;;4452266;32;19949;-77
2022/12/29 01:49:42;;;;;;;;;;;;;;;;;;4452346;32;19975;-77
2022/12/29 01:52:07;;;;;;;;;;;;;;;;;;4439717;32;19952;-75
2022/12/29 01:54:32;;;;;;;;;;;;;;;;;;4442349;32;20286;-76
2022/12/29 01:56:57;;;;;;;;;;;;;;;;;;4459439;32;19951;-73
2022/12/29 01:59:22;;;;;;;;;;;;;;;;;;4458104;32;20000;-76
2022/12/29 02:01:47;;;;;;;;;;;;;;;;;;4458253;32;19943;-75
2022/12/29 02:04:12;;;;;;;;;;;;;;;;;;4459239;32;19933;-76
2022/12/29 02:06:38;;;;;;;;;;;;;;;;;;4441041;32;19974;-75
2022/12/29 02:09:03;;;;;;;;;;;;;;;;;;4454360;32;19932;-75
2022/12/29 02:11:28;;;;;;;;;;;;;;;;;;4455719;32;20005;-74
2022/12/29 02:13:53;;;;;;;;;;;;;;;;;;4439218;32;19947;-75
2022/12/29 02:16:18;;;;;;;;;;;;;;;;;;4453111;32;19932;-74
2022/12/29 02:18:43;;;;;;;;;;;;;;;;;;4451995;32;19997;-74
2022/12/29 02:21:08;;;;;;;;;;;;;;;;;;4437105;32;19941;-76
2022/12/29 02:23:33;;;;;;;;;;;;;;;;;;4451034;32;20291;-76
2022/12/29 02:25:58;;;;;;;;;;;;;;;;;;4437238;32;19936;-75
2022/12/29 02:28:23;;;;;;;;;;;;;;;;;;4451290;32;20283;-74
2022/12/29 02:30:48;;;;;;;;;;;;;;;;;;4450832;32;20358;-75
2022/12/29 02:33:14;;;;;;;;;;;;;;;;;;4451645;32;19948;-75
2022/12/29 02:35:39;;;;;;;;;;;;;;;;;;4451993;32;19951;-75
2022/12/29 02:38:04;;;;;;;;;;;;;;;;;;4451775;32;19950;-73
2022/12/29 02:40:29;;;;;;;;;;;;;;;;;;4438111;32;19940;-74
2022/12/29 02:42:54;;;;;;;;;;;;;;;;;;4451340;32;19951;-75
2022/12/29 02:45:19;;;;;;;;;;;;;;;;;;4451602;32;19936;-74
2022/12/29 02:47:44;;;;;;;;;;;;;;;;;;4450720;32;19944;-74
2022/12/29 02:50:09;;;;;;;;;;;;;;;;;;4451478;32;19936;-74
2022/12/29 02:52:34;;;;;;;;;;;;;;;;;;4451356;32;19937;-75
2022/12/29 02:54:59;;;;;;;;;;;;;;;;;;4452838;32;19937;-74
2022/12/29 02:57:25;;;;;;;;;;;;;;;;;;4451388;32;20320;-74
2022/12/29 02:59:50;;;;;;;;;;;;;;;;;;4450642;32;19945;-73
2022/12/29 03:02:19;;;;;;;;;;;;;;;;;;4453036;32;19933;-74
2022/12/29 03:04:45;;;;;;;;;;;;;;;;;;4452290;32;19955;-74
2022/12/29 03:07:10;;;;;;;;;;;;;;;;;;4450632;32;19937;-74
2022/12/29 03:09:35;;;;;;;;;;;;;;;;;;4450314;32;19955;-73
2022/12/29 03:12:09;;;;;;;;;;;;;;;;;;4452574;32;19940;-75
2022/12/29 03:17:18;;;;;;;;;;;;;;;;;;4451744;32;19931;-75
2022/12/29 03:19:45;;;;;;;;;;;;;;;;;;4450020;32;19964;-73
2022/12/29 03:22:31;;;;;;;;;;;;;;;;;;4449593;32;19941;-72
2022/12/29 03:24:56;;;;;;;;;;;;;;;;;;4435409;32;19985;-74
2022/12/29 03:27:21;;;;;;;;;;;;;;;;;;4436344;32;20027;-75
2022/12/29 03:29:46;;;;;;;;;;;;;;;;;;4451502;32;20292;-74
2022/12/29 03:32:11;;;;;;;;;;;;;;;;;;4454231;32;20379;-74
2022/12/29 03:34:36;;;;;;;;;;;;;;;;;;4453236;32;19932;-74
2022/12/29 03:37:01;;;;;;;;;;;;;;;;;;4438650;32;19976;-74
2022/12/29 03:39:26;;;;;;;;;;;;;;;;;;4453595;32;20346;-74
2022/12/29 03:41:52;;;;;;;;;;;;;;;;;;4453232;32;19964;-75
2022/12/29 03:44:17;;;;;;;;;;;;;;;;;;4453303;32;19936;-73
2022/12/29 03:46:42;;;;;;;;;;;;;;;;;;4438807;32;19974;-75
2022/12/29 03:49:07;;;;;;;;;;;;;;;;;;4453918;32;19932;-73
2022/12/29 03:51:32;;;;;;;;;;;;;;;;;;4452359;32;19941;-73
2022/12/29 03:53:58;;;;;;;;;;;;;;;;;;4452791;32;19940;-73
2022/12/29 03:56:23;;;;;;;;;;;;;;;;;;4452620;32;19948;-74
2022/12/29 03:58:48;;;;;;;;;;;;;;;;;;4438713;32;19944;-74
2022/12/29 04:01:13;;;;;;;;;;;;;;;;;;4438936;32;20355;-74
2022/12/29 04:03:38;;;;;;;;;;;;;;;;;;4453440;32;20207;-74
2022/12/29 04:06:03;;;;;;;;;;;;;;;;;;4452426;32;20305;-74
2022/12/29 04:08:28;;;;;;;;;;;;;;;;;;4453394;32;20269;-73
2022/12/29 04:10:53;;;;;;;;;;;;;;;;;;4453405;32;19984;-74
2022/12/29 04:13:18;;;;;;;;;;;;;;;;;;4452733;32;20261;-74
2022/12/29 04:15:44;;;;;;;;;;;;;;;;;;4453094;32;20328;-74
2022/12/29 04:18:10;;;;;;;;;;;;;;;;;;4451789;32;20238;-75
2022/12/29 04:23:19;;;;;;;;;;;;;;;;;;4452777;32;19984;-73
2022/12/29 04:25:44;;;;;;;;;;;;;;;;;;4451338;32;20064;-73
2022/12/29 04:28:09;;;;;;;;;;;;;;;;;;4452006;32;20260;-74
2022/12/29 04:30:34;;;;;;;;;;;;;;;;;;4452435;32;20248;-74
2022/12/29 04:32:59;;;;;;;;;;;;;;;;;;4452093;32;19992;-74
2022/12/29 04:35:24;;;;;;;;;;;;;;;;;;4452449;32;20358;-76
2022/12/29 04:37:49;;;;;;;;;;;;;;;;;;4439169;32;19948;-74
2022/12/29 04:40:14;;;;;;;;;;;;;;;;;;4452532;32;19936;-73
2022/12/29 04:42:39;;;;;;;;;;;;;;;;;;4451745;32;19996;-73
2022/12/29 04:45:05;;;;;;;;;;;;;;;;;;4451647;32;19960;-74
2022/12/29 04:47:30;;;;;;;;;;;;;;;;;;4437433;32;19932;-75
2022/12/29 04:49:55;;;;;;;;;;;;;;;;;;4437478;32;19936;-74
2022/12/29 04:52:20;;;;;;;;;;;;;;;;;;4451894;32;19994;-74
2022/12/29 04:54:45;;;;;;;;;;;;;;;;;;4452501;32;20361;-73
2022/12/29 04:57:10;;;;;;;;;;;;;;;;;;4452777;32;19999;-74
2022/12/29 04:59:35;;;;;;;;;;;;;;;;;;4451716;32;19940;-73
2022/12/29 05:02:01;;;;;;;;;;;;;;;;;;4451836;32;19951;-74
2022/12/29 05:04:26;;;;;;;;;;;;;;;;;;4452834;32;20269;-74
2022/12/29 05:06:51;;;;;;;;;;;;;;;;;;4453242;32;19947;-75
2022/12/29 05:09:16;;;;;;;;;;;;;;;;;;4450902;32;19947;-76
2022/12/29 05:11:41;;;;;;;;;;;;;;;;;;4451459;32;19944;-77
2022/12/29 05:14:06;;;;;;;;;;;;;;;;;;4452075;32;19967;-78
2022/12/29 05:16:31;;;;;;;;;;;;;;;;;;4452172;32;19982;-76
2022/12/29 05:18:56;;;;;;;;;;;;;;;;;;4451018;32;20207;-76
2022/12/29 05:21:22;;;;;;;;;;;;;;;;;;4436723;32;20008;-78
2022/12/29 05:23:47;;;;;;;;;;;;;;;;;;4437439;32;19937;-77
2022/12/29 05:26:12;;;;;;;;;;;;;;;;;;4455768;32;19971;-75
2022/12/29 05:28:37;;;;;;;;;;;;;;;;;;4439345;32;19965;-74
2022/12/29 05:31:02;;;;;;;;;;;;;;;;;;4451467;32;19965;-74
2022/12/29 05:33:27;;;;;;;;;;;;;;;;;;4454153;32;19932;-74
2022/12/29 05:35:52;;;;;;;;;;;;;;;;;;4453223;32;19974;-75
2022/12/29 05:38:17;;;;;;;;;;;;;;;;;;4438602;32;19948;-75
2022/12/29 05:40:42;;;;;;;;;;;;;;;;;;4452057;32;19963;-75
2022/12/29 05:43:07;;;;;;;;;;;;;;;;;;4452908;32;19932;-76
2022/12/29 05:45:32;;;;;;;;;;;;;;;;;;4450775;32;19992;-75
2022/12/29 05:47:58;;;;;;;;;;;;;;;;;;4451624;32;19989;-76
2022/12/29 05:50:23;;;;;;;;;;;;;;;;;;4452279;32;19976;-76
2022/12/29 05:52:48;;;;;;;;;;;;;;;;;;4451051;32;19932;-73
2022/12/29 05:55:13;;;;;;;;;;;;;;;;;;4450678;32;19984;-76
2022/12/29 05:57:38;;;;;;;;;;;;;;;;;;4450538;32;20342;-76
2022/12/29 06:00:03;;;;;;;;;;;;;;;;;;4450568;32;19963;-76
2022/12/29 06:02:28;;;;;;;;;;;;;;;;;;4451109;32;19937;-74
2022/12/29 06:04:54;;;;;;;;;;;;;;;;;;4451744;32;19992;-75
2022/12/29 06:07:19;;;;;;;;;;;;;;;;;;4450185;32;19932;-76
2022/12/29 06:09:44;;;;;;;;;;;;;;;;;;4450431;32;19979;-75
2022/12/29 06:12:09;;;;;;;;;;;;;;;;;;4451319;32;19940;-76
2022/12/29 06:14:34;;;;;;;;;;;;;;;;;;4451479;32;19933;-76
2022/12/29 06:16:59;;;;;;;;;;;;;;;;;;4452978;32;19973;-76
2022/12/29 06:19:24;;;;;;;;;;;;;;;;;;4450916;32;19941;-76
2022/12/29 06:21:51;;;;;;;;;;;;;;;;;;4450125;32;19941;-73
2022/12/29 06:24:16;;;;;;;;;;;;;;;;;;4436512;32;19937;-77
2022/12/29 06:26:41;;;;;;;;;;;;;;;;;;4451906;32;20019;-77
2022/12/29 06:29:07;;;;;;;;;;;;;;;;;;4451040;32;19951;-78
2022/12/29 06:31:33;;;;;;;;;;;;;;;;;;4450879;32;19983;-75
2022/12/29 06:33:58;;;;;;;;;;;;;;;;;;4451271;32;19947;-75
2022/12/29 06:36:23;;;;;;;;;;;;;;;;;;4437157;32;19937;-75
2022/12/29 06:38:48;;;;;;;;;;;;;;;;;;4438368;32;20012;-75
2022/12/29 06:41:13;;;;;;;;;;;;;;;;;;4451222;32;19969;-76
2022/12/29 06:43:38;;;;;;;;;;;;;;;;;;4451093;32;19994;-74
2022/12/29 06:46:03;;;;;;;;;;;;;;;;;;4436883;32;19948;-74
2022/12/29 06:48:29;;;;;;;;;;;;;;;;;;4436593;32;19966;-73
2022/12/29 06:50:54;;;;;;;;;;;;;;;;;;4451270;32;19936;-74
2022/12/29 06:53:19;;;;;;;;;;;;;;;;;;4436962;32;19940;-74
2022/12/29 06:55:44;;;;;;;;;;;;;;;;;;4450981;32;19936;-72
2022/12/29 06:58:09;;;;;;;;;;;;;;;;;;4450911;32;20304;-72
2022/12/29 07:00:34;;;;;;;;;;;;;;;;;;4436137;32;19940;-73
2022/12/29 07:02:59;;;;;;;;;;;;;;;;;;4436869;32;20023;-74
2022/12/29 07:05:26;;;;;;;;;;;;;;;;;;4455096;32;19972;-74
2022/12/29 07:07:52;;;;;;;;;;;;;;;;;;4454202;32;20380;-74
2022/12/29 07:10:17;;;;;;;;;;;;;;;;;;4454535;32;19936;-73
2022/12/29 07:12:42;;;;;;;;;;;;;;;;;;4453692;32;20309;-74
2022/12/29 07:15:07;;;;;;;;;;;;;;;;;;4454608;32;19937;-74
2022/12/29 07:17:32;;;;;;;;;;;;;;;;;;4454551;32;19986;-73
2022/12/29 07:19:57;;;;;;;;;;;;;;;;;;4453144;32;20301;-73
2022/12/29 07:22:22;;;;;;;;;;;;;;;;;;4453882;32;19978;-74
2022/12/29 07:24:47;;;;;;;;;;;;;;;;;;4454699;32;19983;-75
2022/12/29 07:27:13;;;;;;;;;;;;;;;;;;4455027;32;19932;-75
2022/12/29 07:29:38;;;;;;;;;;;;;;;;;;4455272;32;20325;-74
2022/12/29 07:32:03;;;;;;;;;;;;;;;;;;4440408;32;19951;-74
2022/12/29 07:34:28;;;;;;;;;;;;;;;;;;4455354;32;19996;-74
2022/12/29 07:36:53;;;;;;;;;;;;;;;;;;4454768;32;19932;-72
2022/12/29 07:39:18;;;;;;;;;;;;;;;;;;4457814;32;19947;-75
2022/12/29 07:41:43;;;;;;;;;;;;;;;;;;4455030;32;20005;-73
2022/12/29 07:44:08;;;;;;;;;;;;;;;;;;4454963;32;19940;-75
2022/12/29 07:46:33;;;;;;;;;;;;;;;;;;4453550;32;19936;-73
2022/12/29 07:48:58;;;;;;;;;;;;;;;;;;4454188;32;19980;-74
2022/12/29 07:51:24;;;;;;;;;;;;;;;;;;4454736;32;20320;-73
2022/12/29 07:53:49;;;;;;;;;;;;;;;;;;4454604;32;19932;-74
2022/12/29 07:56:14;;;;;;;;;;;;;;;;;;4452642;32;19932;-74
2022/12/29 07:58:39;;;;;;;;;;;;;;;;;;4454206;32;19937;-74
2022/12/29 08:01:05;;;;;;;;;;;;;;;;;;4454734;32;19936;-74
2022/12/29 08:03:30;;;;;;;;;;;;;;;;;;4453013;32;19932;-73
2022/12/29 08:05:55;;;;;;;;;;;;;;;;;;4453022;32;19971;-73
2022/12/29 08:08:20;;;;;;;;;;;;;;;;;;4452782;32;20325;-74
2022/12/29 08:10:45;;;;;;;;;;;;;;;;;;4453399;32;19948;-73
2022/12/29 08:13:12;;;;;;;;;;;;;;;;;;4454539;32;19951;-74
2022/12/29 08:15:37;;;;;;;;;;;;;;;;;;4453555;32;19940;-74
2022/12/29 08:18:02;;;;;;;;;;;;;;;;;;4452669;32;19971;-73
2022/12/29 08:20:27;;;;;;;;;;;;;;;;;;4438407;32;19948;-74
2022/12/29 08:22:52;;;;;;;;;;;;;;;;;;4439734;32;19972;-74
2022/12/29 08:25:19;;;;;;;;;;;;;;;;;;4438028;32;19974;-73
2022/12/29 08:27:44;;;;;;;;;;;;;;;;;;4451975;32;19941;-74
2022/12/29 08:30:09;;;;;;;;;;;;;;;;;;4452530;32;20036;-73
2022/12/29 08:32:34;;;;;;;;;;;;;;;;;;4452728;32;20218;-74
2022/12/29 08:35:00;;;;;;;;;;;;;;;;;;4452473;32;19993;-74
2022/12/29 08:37:25;;;;;;;;;;;;;;;;;;4452402;32;19936;-76
2022/12/29 08:39:50;;;;;;;;;;;;;;;;;;4437964;32;19940;-75
2022/12/29 08:42:15;;;;;;;;;;;;;;;;;;4437745;32;19948;-75
2022/12/29 08:44:40;;;;;;;;;;;;;;;;;;4451814;32;19940;-75
2022/12/29 08:47:05;;;;;;;;;;;;;;;;;;4451772;32;19972;-74
2022/12/29 08:49:31;;;;;;;;;;;;;;;;;;4437781;32;20307;-73
2022/12/29 08:51:56;;;;;;;;;;;;;;;;;;4452504;32;19951;-74
2022/12/29 08:54:21;;;;;;;;;;;;;;;;;;4453207;32;19949;-75
2022/12/29 08:56:46;;;;;;;;;;;;;;;;;;4454638;32;19936;-76
2022/12/29 08:59:11;;;;;;;;;;;;;;;;;;4454752;32;19940;-74
2022/12/29 09:01:40;;;;;;;;;;;;;;;;;;4454741;32;20064;-74
2022/12/29 09:04:05;;;;;;;;;;;;;;;;;;4455899;32;19936;-74
2022/12/29 09:06:30;;;;;;;;;;;;;;;;;;4452575;32;19932;-75
2022/12/29 09:08:55;;;;;;;;;;;;;;;;;;4453006;32;19973;-76
2022/12/29 09:11:20;;;;;;;;;;;;;;;;;;4438517;32;19960;-75
2022/12/29 09:13:46;;;;;;;;;;;;;;;;;;4448214;32;19974;-74
2022/12/29 09:16:11;;;;;;;;;;;;;;;;;;4448778;32;20048;-74
2022/12/29 09:18:36;;;;;;;;;;;;;;;;;;4450405;32;20053;-75
2022/12/29 09:21:01;;;;;;;;;;;;;;;;;;4449709;32;19940;-75
2022/12/29 09:23:26;;;;;;;;;;;;;;;;;;4449189;32;19978;-76
2022/12/29 09:25:51;;;;;;;;;;;;;;;;;;4449965;32;20286;-74
2022/12/29 09:28:16;;;;;;;;;;;;;;;;;;4449337;32;20400;-76
2022/12/29 09:30:41;;;;;;;;;;;;;;;;;;4450120;32;19932;-77
2022/12/29 09:33:06;;;;;;;;;;;;;;;;;;4439311;32;19936;-75
2022/12/29 09:35:31;;;;;;;;;;;;;;;;;;4449951;32;19965;-75
2022/12/29 09:37:57;;;;;;;;;;;;;;;;;;4451296;32;20022;-75
2022/12/29 09:40:22;;;;;;;;;;;;;;;;;;4449123;32;20013;-76
2022/12/29 09:42:47;;;;;;;;;;;;;;;;;;4450177;32;20350;-75
2022/12/29 09:45:12;;;;;;;;;;;;;;;;;;4451104;32;20318;-74
2022/12/29 09:47:37;;;;;;;;;;;;;;;;;;4436143;32;20324;-76
2022/12/29 09:50:02;;;;;;;;;;;;;;;;;;4451651;32;20302;-76
2022/12/29 09:52:29;;;;;;;;;;;;;;;;;;4450374;32;20345;-76
2022/12/29 09:54:54;;;;;;;;;;;;;;;;;;4450820;32;19993;-76
2022/12/29 09:57:19;;;;;;;;;;;;;;;;;;4450279;32;19955;-76
2022/12/29 09:59:44;;;;;;;;;;;;;;;;;;4444604;32;20326;-77
2022/12/29 10:02:09;;;;;;;;;;;;;;;;;;4437149;32;19979;-76
2022/12/29 10:04:34;;;;;;;;;;;;;;;;;;4449130;32;19955;-78
2022/12/29 10:07:00;;;;;;;;;;;;;;;;;;4450906;32;19951;-77
2022/12/29 10:09:25;;;;;;;;;;;;;;;;;;4450591;32;19943;-76
2022/12/29 10:11:50;;;;;;;;;;;;;;;;;;4450342;32;19932;-77
2022/12/29 10:14:15;;;;;;;;;;;;;;;;;;4451202;32;19937;-77
2022/12/29 10:16:40;;;;;;;;;;;;;;;;;;4451353;32;19969;-78
2022/12/29 10:19:05;;;;;;;;;;;;;;;;;;4451360;32;20350;-78
2022/12/29 10:21:30;;;;;;;;;;;;;;;;;;4450204;32;20310;-78
2022/12/29 10:23:55;;;;;;;;;;;;;;;;;;4451095;32;20229;-76
2022/12/29 10:26:21;;;;;;;;;;;;;;;;;;4451299;32;20274;-77
2022/12/29 10:28:46;;;;;;;;;;;;;;;;;;4450509;32;19947;-77
2022/12/29 10:31:11;;;;;;;;;;;;;;;;;;4452082;32;19984;-76
2022/12/29 10:33:36;;;;;;;;;;;;;;;;;;4450226;32;19964;-76
2022/12/29 10:36:01;;;;;;;;;;;;;;;;;;4449904;32;19937;-76
2022/12/29 10:38:27;;;;;;;;;;;;;;;;;;4450918;32;19937;-78
2022/12/29 10:40:52;;;;;;;;;;;;;;;;;;4439875;32;20319;-76
2022/12/29 10:43:17;;;;;;;;;;;;;;;;;;4440536;32;19936;-76
2022/12/29 10:45:42;;;;;;;;;;;;;;;;;;4454824;32;19968;-76
2022/12/29 10:48:07;;;;;;;;;;;;;;;;;;4441037;32;19962;-75
2022/12/29 10:50:32;;;;;;;;;;;;;;;;;;4454920;32;19972;-75
2022/12/29 10:52:57;;;;;;;;;;;;;;;;;;4454499;32;19989;-75
2022/12/29 10:55:22;;;;;;;;;;;;;;;;;;4454183;32;19937;-76
2022/12/29 10:57:49;;;;;;;;;;;;;;;;;;4453053;32;20336;-76
2022/12/29 11:00:16;;;;;;;;;;;;;;;;;;4454187;32;19960;-76
2022/12/29 11:02:41;;;;;;;;;;;;;;;;;;4452656;32;19951;-79
2022/12/29 11:05:07;;;;;;;;;;;;;;;;;;4454651;32;19937;-76
2022/12/29 11:07:32;;;;;;;;;;;;;;;;;;4453430;32;19955;-76
2022/12/29 11:09:57;;;;;;;;;;;;;;;;;;4454979;32;19933;-77
2022/12/29 11:12:22;;;;;;;;;;;;;;;;;;4452744;32;20405;-79
2022/12/29 11:14:48;;;;;;;;;;;;;;;;;;4453800;32;19943;-78
2022/12/29 11:17:13;;;;;;;;;;;;;;;;;;4454517;32;19967;-77
2022/12/29 11:19:38;;;;;;;;;;;;;;;;;;4454108;32;19944;-77
2022/12/29 11:22:03;;;;;;;;;;;;;;;;;;4438954;32;19996;-77
2022/12/29 11:24:28;;;;;;;;;;;;;;;;;;4453898;32;19981;-76
2022/12/29 11:26:57;;;;;;;;;;;;;;;;;;4454868;32;19951;-77
2022/12/29 11:29:25;;;;;;;;;;;;;;;;;;4439855;32;19982;-77
2022/12/29 11:31:50;;;;;;;;;;;;;;;;;;4453644;32;19955;-76
2022/12/29 11:34:15;;;;;;;;;;;;;;;;;;4453511;32;19937;-76
2022/12/29 11:36:40;;;;;;;;;;;;;;;;;;4454422;32;19932;-77
2022/12/29 11:39:05;;;;;;;;;;;;;;;;;;4453737;32;19974;-76
2022/12/29 11:41:30;;;;;;;;;;;;;;;;;;4454234;32;20204;-77
2022/12/29 11:43:55;;;;;;;;;;;;;;;;;;4453551;32;19951;-76
2022/12/29 11:46:21;;;;;;;;;;;;;;;;;;4454757;32;19936;-76
2022/12/29 11:48:46;;;;;;;;;;;;;;;;;;4457548;32;20310;-76
2022/12/29 11:51:11;;;;;;;;;;;;;;;;;;4455090;32;19972;-75
2022/12/29 11:53:37;;;;;;;;;;;;;;;;;;4454038;32;20304;-77
2022/12/29 11:56:02;;;;;;;;;;;;;;;;;;4453266;32;19975;-76
2022/12/29 11:58:27;;;;;;;;;;;;;;;;;;4453486;32;19936;-76
2022/12/29 12:00:52;;;;;;;;;;;;;;;;;;4453837;32;19982;-75
2022/12/29 12:03:17;;;;;;;;;;;;;;;;;;4454019;32;19932;-77
2022/12/29 12:05:42;;;;;;;;;;;;;;;;;;4453393;32;19936;-77
2022/12/29 12:08:07;;;;;;;;;;;;;;;;;;4454366;32;19936;-76
2022/12/29 12:10:33;;;;;;;;;;;;;;;;;;4453923;32;19998;-76
2022/12/29 12:12:58;;;;;;;;;;;;;;;;;;4454019;32;20258;-76
2022/12/29 12:15:23;;;;;;;;;;;;;;;;;;4440794;32;19936;-76
2022/12/29 12:17:48;;;;;;;;;;;;;;;;;;4455445;32;19968;-76
2022/12/29 12:20:13;;;;;;;;;;;;;;;;;;4458100;32;20302;-77
2022/12/29 12:22:39;;;;;;;;;;;;;;;;;;4458884;32;19985;-76
2022/12/29 12:25:05;;;;;;;;;;;;;;;;;;4460333;32;19944;-75
2022/12/29 12:27:30;;;;;;;;;;;;;;;;;;4443805;32;19928;-76
2022/12/29 12:29:55;;;;;;;;;;;;;;;;;;4460876;32;19969;-76
2022/12/29 12:32:20;;;;;;;;;;;;;;;;;;4439540;32;19992;-75
2022/12/29 12:34:45;;;;;;;;;;;;;;;;;;4453286;32;19957;-76
2022/12/29 12:37:10;;;;;;;;;;;;;;;;;;4438890;32;19932;-75
2022/12/29 12:39:36;;;;;;;;;;;;;;;;;;4453430;32;19988;-76
2022/12/29 12:42:01;;;;;;;;;;;;;;;;;;4453150;32;19948;-77
2022/12/29 12:44:26;;;;;;;;;;;;;;;;;;4452839;32;20014;-76
2022/12/29 12:46:51;;;;;;;;;;;;;;;;;;4452252;32;19941;-77
2022/12/29 12:49:16;;;;;;;;;;;;;;;;;;4453037;32;19971;-76
2022/12/29 12:51:41;;;;;;;;;;;;;;;;;;4439085;32;20309;-75
2022/12/29 12:54:06;;;;;;;;;;;;;;;;;;4453498;32;19994;-76
2022/12/29 12:56:31;;;;;;;;;;;;;;;;;;4452698;32;20015;-76
2022/12/29 12:58:56;;;;;;;;;;;;;;;;;;4454456;32;20272;-76
2022/12/29 13:01:21;;;;;;;;;;;;;;;;;;4453702;32;19933;-76
2022/12/29 13:03:46;;;;;;;;;;;;;;;;;;4452691;32;19940;-76
2022/12/29 13:06:12;;;;;;;;;;;;;;;;;;4452481;32;20277;-76
2022/12/29 13:08:37;;;;;;;;;;;;;;;;;;4453552;32;19947;-76
2022/12/29 13:11:02;;;;;;;;;;;;;;;;;;4454712;32;19964;-77
2022/12/29 13:13:27;;;;;;;;;;;;;;;;;;4452516;32;19955;-77
2022/12/29 13:15:52;;;;;;;;;;;;;;;;;;4451556;32;20012;-76
2022/12/29 13:18:17;;;;;;;;;;;;;;;;;;4438341;32;20302;-75
2022/12/29 13:20:42;;;;;;;;;;;;;;;;;;4453278;32;20166;-76
2022/12/29 13:23:07;;;;;;;;;;;;;;;;;;4451893;32;20339;-76
2022/12/29 13:25:33;;;;;;;;;;;;;;;;;;4452920;32;19972;-76
2022/12/29 13:27:58;;;;;;;;;;;;;;;;;;4453556;32;19969;-76
2022/12/29 13:30:23;;;;;;;;;;;;;;;;;;4437778;32;20004;-76
2022/12/29 13:32:48;;;;;;;;;;;;;;;;;;4452099;32;19933;-76
2022/12/29 13:35:13;;;;;;;;;;;;;;;;;;4451931;32;19932;-76
2022/12/29 13:37:38;;;;;;;;;;;;;;;;;;4452490;32;19964;-74
2022/12/29 13:40:03;;;;;;;;;;;;;;;;;;4439579;32;20306;-75
2022/12/29 13:42:28;;;;;;;;;;;;;;;;;;4450744;32;19936;-76
2022/12/29 13:44:53;;;;;;;;;;;;;;;;;;4450025;32;20282;-77
2022/12/29 13:47:19;;;;;;;;;;;;;;;;;;4450347;32;19951;-76
2022/12/29 13:49:44;;;;;;;;;;;;;;;;;;4453167;32;19948;-75
2022/12/29 13:52:09;;;;;;;;;;;;;;;;;;4450981;32;19951;-74
2022/12/29 13:54:34;;;;;;;;;;;;;;;;;;4448583;32;19951;-74
2022/12/29 13:56:59;;;;;;;;;;;;;;;;;;4451100;32;19936;-74
2022/12/29 13:59:24;;;;;;;;;;;;;;;;;;4449776;32;19936;-74
2022/12/29 14:01:50;;;;;;;;;;;;;;;;;;4449829;32;20048;-74
2022/12/29 14:04:15;;;;;;;;;;;;;;;;;;4450641;32;20018;-74
2022/12/29 14:06:40;;;;;;;;;;;;;;;;;;4452267;32;19937;-74
2022/12/29 14:09:05;;;;;;;;;;;;;;;;;;4450393;32;19966;-74
2022/12/29 14:11:30;;;;;;;;;;;;;;;;;;4449022;32;20286;-74
2022/12/29 14:13:56;;;;;;;;;;;;;;;;;;4448874;32;19999;-74
2022/12/29 14:16:21;;;;;;;;;;;;;;;;;;4449129;32;19991;-74
2022/12/29 14:18:46;;;;;;;;;;;;;;;;;;4449712;32;19936;-74
2022/12/29 14:21:11;;;;;;;;;;;;;;;;;;4435307;32;20373;-75
2022/12/29 14:23:42;;;;;;;;;;;;;;;;;;4449740;32;20110;-77
2022/12/29 14:26:08;;;;;;;;;;;;;;;;;;4449711;32;19947;-76
2022/12/29 14:28:33;;;;;;;;;;;;;;;;;;4450609;32;19945;-74
2022/12/29 14:30:58;;;;;;;;;;;;;;;;;;4451193;32;19945;-75
2022/12/29 14:33:26;;;;;;;;;;;;;;;;;;4439042;32;20004;-77
2022/12/29 14:35:51;;;;;;;;;;;;;;;;;;4450831;32;19945;-76
2022/12/29 14:38:17;;;;;;;;;;;;;;;;;;4451819;32;19995;-76
2022/12/29 14:40:42;;;;;;;;;;;;;;;;;;4449681;32;20060;-75
2022/12/29 14:43:07;;;;;;;;;;;;;;;;;;4450243;32;19944;-77
2022/12/29 14:45:37;;;;;;;;;;;;;;;;;;4436601;32;20242;-76
2022/12/29 14:48:02;;;;;;;;;;;;;;;;;;4450734;32;19964;-77
2022/12/29 14:50:27;;;;;;;;;;;;;;;;;;4451578;32;19932;-77
2022/12/29 14:52:55;;;;;;;;;;;;;;;;;;4450423;32;19993;-77
2022/12/29 14:55:20;;;;;;;;;;;;;;;;;;4450539;32;19944;-77
2022/12/29 14:57:45;;;;;;;;;;;;;;;;;;4449790;32;19989;-77
2022/12/29 15:00:10;;;;;;;;;;;;;;;;;;4449574;32;20306;-77
2022/12/29 15:02:38;;;;;;;;;;;;;;;;;;4450644;32;19984;-76
2022/12/29 15:05:03;;;;;;;;;;;;;;;;;;4449530;32;19978;-77
2022/12/29 15:07:28;;;;;;;;;;;;;;;;;;4437344;32;19949;-76
2022/12/29 15:09:53;;;;;;;;;;;;;;;;;;4450507;32;20306;-77
2022/12/29 15:12:18;;;;;;;;;;;;;;;;;;4450031;32;20320;-76
2022/12/29 15:14:43;;;;;;;;;;;;;;;;;;4449394;32;19940;-76
2022/12/29 15:17:09;;;;;;;;;;;;;;;;;;4450723;32;20000;-76
2022/12/29 15:19:36;;;;;;;;;;;;;;;;;;4450742;32;20108;-77
2022/12/29 15:22:01;;;;;;;;;;;;;;;;;;4450551;32;19936;-76
2022/12/29 15:24:26;;;;;;;;;;;;;;;;;;4450463;32;20258;-77
2022/12/29 15:26:52;;;;;;;;;;;;;;;;;;4453594;32;20013;-74
2022/12/29 15:29:17;;;;;;;;;;;;;;;;;;4453288;32;19996;-76
2022/12/29 15:31:42;;;;;;;;;;;;;;;;;;4451648;32;19971;-77
2022/12/29 15:34:07;;;;;;;;;;;;;;;;;;4451832;32;19936;-76
2022/12/29 15:36:32;;;;;;;;;;;;;;;;;;4451989;32;20153;-75
2022/12/29 15:38:57;;;;;;;;;;;;;;;;;;4452440;32;19932;-77
2022/12/29 15:41:22;;;;;;;;;;;;;;;;;;4460328;32;19959;-76
2022/12/29 15:43:47;;;;;;;;;;;;;;;;;;4460138;32;19948;-76
2022/12/29 15:46:12;;;;;;;;;;;;;;;;;;4462062;32;19967;-76
2022/12/29 15:48:37;;;;;;;;;;;;;;;;;;4460105;32;19970;-76
2022/12/29 15:51:03;;;;;;;;;;;;;;;;;;4461020;32;20048;-76
2022/12/29 15:53:28;;;;;;;;;;;;;;;;;;4444787;32;19945;-77
2022/12/29 15:55:53;;;;;;;;;;;;;;;;;;4459971;32;19943;-78
2022/12/29 15:58:18;;;;;;;;;;;;;;;;;;4456857;32;19968;-78
2022/12/29 16:00:43;;;;;;;;;;;;;;;;;;4454107;32;19983;-77
2022/12/29 16:03:08;;;;;;;;;;;;;;;;;;4453449;32;19944;-76
2022/12/29 16:05:33;;;;;;;;;;;;;;;;;;4454046;32;20288;-77
2022/12/29 16:07:58;;;;;;;;;;;;;;;;;;4454587;32;19940;-76
2022/12/29 16:10:23;;;;;;;;;;;;;;;;;;4454469;32;20325;-77
2022/12/29 16:12:49;;;;;;;;;;;;;;;;;;4454053;32;19947;-77
2022/12/29 16:15:14;;;;;;;;;;;;;;;;;;4452493;32;19980;-76
2022/12/29 16:17:40;;;;;;;;;;;;;;;;;;4439411;32;19941;-77
2022/12/29 16:20:05;;;;;;;;;;;;;;;;;;4453209;32;20430;-77
2022/12/29 16:22:30;;;;;;;;;;;;;;;;;;4453982;32;19940;-78
2022/12/29 16:24:55;;;;;;;;;;;;;;;;;;4453351;32;20269;-76
2022/12/29 16:27:20;;;;;;;;;;;;;;;;;;4439103;32;19955;-78
2022/12/29 16:29:46;;;;;;;;;;;;;;;;;;4440641;32;20258;-76
2022/12/29 16:32:11;;;;;;;;;;;;;;;;;;4453062;32;20017;-77
2022/12/29 16:34:36;;;;;;;;;;;;;;;;;;4453035;32;19937;-77
2022/12/29 16:37:01;;;;;;;;;;;;;;;;;;4453374;32;19948;-77
2022/12/29 16:39:26;;;;;;;;;;;;;;;;;;4451904;32;20272;-76
2022/12/29 16:41:52;;;;;;;;;;;;;;;;;;4453407;32;20020;-77
2022/12/29 16:44:17;;;;;;;;;;;;;;;;;;4452028;32;20334;-76
2022/12/29 16:46:42;;;;;;;;;;;;;;;;;;4452349;32;19936;-77
2022/12/29 16:49:07;;;;;;;;;;;;;;;;;;4453366;32;19967;-76
2022/12/29 16:51:32;;;;;;;;;;;;;;;;;;4453750;32;19968;-77
2022/12/29 16:53:57;;;;;;;;;;;;;;;;;;4454010;32;20306;-77
2022/12/29 16:56:23;;;;;;;;;;;;;;;;;;4453269;32;19995;-78
2022/12/29 16:58:49;;;;;;;;;;;;;;;;;;4453413;32;19973;-78
2022/12/29 17:01:18;;;;;;;;;;;;;;;;;;4438644;32;19941;-77
2022/12/29 17:03:43;;;;;;;;;;;;;;;;;;4452927;32;19932;-78
2022/12/29 17:06:13;;;;;;;;;;;;;;;;;;4453307;32;19975;-77
2022/12/29 17:08:38;;;;;;;;;;;;;;;;;;4453603;32;19936;-76